Terminal Aerodrome Forecast
Issued by NWS Wilmington, OH

Current Version | Previous Version | Graphics & Text | Print | Product List | Glossary On
Versions: 1 2 3 4 5 6 7 8 9 10 11 12 13 14 15 16 17 18
000
FTUS41 KILN 261300 AAA
TAFDAY
TAF AMD
KDAY 261304Z 2613/2712 35007KT 2SM -RA BR OVC005
     FM261800 33015G22KT 5SM BR OVC012
     FM262000 33015G24KT P6SM OVC025
     FM262200 32014KT P6SM SCT040 BKN120
     FM270800 33010KT P6SM BKN035=

USA.gov is the U.S. government's official web portal to all federal, state and local government web resources and services.